Time;durP1;ratioP1;P1;durP2;ratioP2;P2;SDS_P1;SDS_P2;PMS_P1;PMS_P2;Temp;Humidity;BMP_temperature;BMP_pressure;BME280_temperature;BME280_humidity;BME280_pressure;Samples;Min_cycle;Max_cycle;Signal;HPM_P1;HPM_P2
2023/08/28 00:00:19;;;;;;;13.35;11.20;;;;;;;14.04;71.09;100538.75;682186;29;1688;-78
2023/08/28 00:00:40;;;;;;;13.77;11.10;;;;;;;14.03;71.18;100536.09;685220;28;1089;-78
2023/08/28 00:01:03;;;;;;;14.25;11.45;;;;;;;14.06;71.41;100541.38;689475;28;1146;-78
2023/08/28 00:01:24;;;;;;;12.02;10.80;;;;;;;14.07;71.39;100548.41;684771;28;1808;-78
2023/08/28 00:01:44;;;;;;;12.65;11.20;;;;;;;14.05;71.13;100545.75;681154;28;1272;-77
2023/08/28 00:02:05;;;;;;;12.98;11.35;;;;;;;14.19;71.24;100558.16;692901;28;1284;-78
2023/08/28 00:02:26;;;;;;;13.10;11.50;;;;;;;14.09;71.30;100542.28;688133;28;1739;-78
2023/08/28 00:02:46;;;;;;;12.60;11.30;;;;;;;14.02;71.28;100532.56;687978;28;1218;-78
2023/08/28 00:03:07;;;;;;;12.30;11.13;;;;;;;14.16;71.36;100561.63;688142;28;1082;-78
2023/08/28 00:03:28;;;;;;;12.70;11.20;;;;;;;14.11;71.19;100556.34;679382;28;1962;-78
2023/08/28 00:03:48;;;;;;;12.98;11.27;;;;;;;14.08;71.35;100544.91;685457;28;1509;-78
2023/08/28 00:04:09;;;;;;;13.77;11.27;;;;;;;14.10;71.29;100543.16;686634;28;1623;-77
2023/08/28 00:04:30;;;;;;;12.45;10.88;;;;;;;14.15;71.17;100562.50;685420;28;1665;-78
2023/08/28 00:04:50;;;;;;;13.23;11.27;;;;;;;14.05;71.61;100539.59;675573;29;1146;-78
2023/08/28 00:05:11;;;;;;;12.53;11.13;;;;;;;14.23;71.38;100568.72;682785;28;870;-78
2023/08/28 00:05:31;;;;;;;13.65;12.32;;;;;;;14.06;71.31;100537.00;683881;28;1192;-78
2023/08/28 00:05:52;;;;;;;14.60;12.50;;;;;;;14.22;71.25;100569.56;683814;28;1832;-78
2023/08/28 00:06:14;;;;;;;14.73;12.52;;;;;;;14.07;71.30;100545.78;680100;28;1139;-78
2023/08/28 00:06:35;;;;;;;13.32;11.68;;;;;;;14.05;71.27;100540.50;680240;29;1040;-78
2023/08/28 00:06:56;;;;;;;12.60;11.37;;;;;;;14.09;71.54;100551.91;686237;28;1290;-78
2023/08/28 00:07:17;;;;;;;12.90;11.60;;;;;;;14.11;71.62;100555.44;688230;28;987;-78
2023/08/28 00:07:37;;;;;;;12.93;11.57;;;;;;;14.21;71.82;100580.06;682755;28;1207;-78
2023/08/28 00:07:58;;;;;;;14.40;11.90;;;;;;;14.08;71.34;100553.63;693431;28;1141;-78
2023/08/28 00:08:19;;;;;;;13.05;11.65;;;;;;;14.15;71.30;100557.25;692784;28;1471;-78
2023/08/28 00:08:39;;;;;;;12.57;11.33;;;;;;;14.08;71.42;100551.00;689527;28;1364;-78
2023/08/28 00:09:00;;;;;;;12.93;11.73;;;;;;;14.07;71.44;100548.41;689912;28;1088;-77
2023/08/28 00:09:21;;;;;;;13.75;12.35;;;;;;;14.12;71.25;100557.22;685757;28;1263;-77
2023/08/28 00:09:41;;;;;;;13.87;12.37;;;;;;;14.13;71.47;100553.72;683400;29;1039;-77
2023/08/28 00:10:19;;;;;;;13.98;11.82;;;;;;;14.22;71.54;100561.69;685883;29;1647;-79
2023/08/28 00:10:40;;;;;;;13.10;11.80;;;;;;;14.14;71.54;100558.13;685408;28;1832;-78
2023/08/28 00:11:02;;;;;;;15.68;12.02;;;;;;;14.22;71.61;100572.19;685595;28;1176;-78
2023/08/28 00:11:23;;;;;;;17.15;12.40;;;;;;;14.17;71.47;100560.75;682827;29;1407;-78
2023/08/28 00:11:44;;;;;;;18.80;13.10;;;;;;;14.11;71.42;100545.84;682681;29;1140;-77
2023/08/28 00:12:05;;;;;;;14.70;13.20;;;;;;;14.27;71.45;100566.09;685341;29;1140;-77
2023/08/28 00:12:26;;;;;;;14.40;12.90;;;;;;;14.23;71.35;100566.09;684880;28;1891;-77
2023/08/28 00:12:46;;;;;;;14.02;12.55;;;;;;;14.14;71.28;100552.88;682846;28;1238;-78
2023/08/28 00:13:07;;;;;;;13.97;12.57;;;;;;;14.20;71.61;100557.31;679629;29;1319;-77
2023/08/28 00:13:28;;;;;;;13.57;12.23;;;;;;;14.20;71.67;100558.16;683365;29;1585;-74
2023/08/28 00:13:48;;;;;;;13.32;12.00;;;;;;;14.23;71.47;100558.22;686001;28;1420;-77
2023/08/28 00:14:09;;;;;;;13.90;12.50;;;;;;;14.21;71.47;100556.44;683708;28;1512;-77
2023/08/28 00:14:30;;;;;;;14.00;12.60;;;;;;;14.11;71.48;100539.72;683991;29;1600;-77
2023/08/28 00:14:51;;;;;;;14.20;12.80;;;;;;;14.27;71.14;100559.13;678081;29;1086;-78
2023/08/28 00:15:12;;;;;;;13.55;12.25;;;;;;;14.16;71.48;100548.50;685893;28;1324;-77
2023/08/28 00:15:32;;;;;;;13.40;12.07;;;;;;;14.12;71.53;100544.09;684488;28;1474;-78
2023/08/28 00:15:53;;;;;;;12.75;11.55;;;;;;;14.19;71.53;100559.03;683259;28;1477;-77
2023/08/28 00:16:14;;;;;;;14.10;11.80;;;;;;;14.13;71.61;100543.22;683310;29;865;-77
2023/08/28 00:16:35;;;;;;;13.75;11.43;;;;;;;14.24;71.76;100556.44;678088;28;1839;-77
2023/08/28 00:17:01;;;;;;;13.35;11.10;;;;;;;14.10;71.37;100532.66;680171;29;985;-78
2023/08/28 00:17:22;;;;;;;12.00;10.80;;;;;;;14.08;71.66;100523.91;683102;29;1193;-77
2023/08/28 00:17:42;;;;;;;12.07;10.93;;;;;;;14.23;71.63;100555.59;680498;29;1551;-78
2023/08/28 00:18:04;;;;;;;13.10;11.73;;;;;;;14.26;71.74;100560.00;691245;28;1128;-78
2023/08/28 00:18:25;;;;;;;13.88;12.38;;;;;;;14.12;71.79;100528.34;688730;28;1303;-78
2023/08/28 00:18:45;;;;;;;14.70;12.60;;;;;;;14.13;71.85;100527.47;684303;28;1782;-77
2023/08/28 00:19:06;;;;;;;14.13;12.20;;;;;;;14.18;71.69;100533.66;683103;28;1087;-78
2023/08/28 00:19:26;;;;;;;13.63;12.18;;;;;;;14.24;71.84;100545.94;675351;29;1118;-77
2023/08/28 00:19:47;;;;;;;12.80;11.50;;;;;;;14.24;71.77;100541.59;681338;28;1660;-76
2023/08/28 00:20:08;;;;;;;12.70;11.40;;;;;;;14.29;71.98;100539.00;681640;28;1779;-78
2023/08/28 00:20:29;;;;;;;13.00;11.00;;;;;;;14.34;71.66;100562.66;680385;29;958;-77
2023/08/28 00:20:49;;;;;;;14.75;11.88;;;;;;;14.38;71.76;100565.34;686477;28;1345;-78
2023/08/28 00:21:10;;;;;;;14.73;12.20;;;;;;;14.20;71.57;100537.16;688287;28;1951;-78
2023/08/28 00:21:31;;;;;;;13.30;11.90;;;;;;;14.23;71.55;100537.22;685481;28;965;-78
2023/08/28 00:21:52;;;;;;;12.40;11.13;;;;;;;14.21;71.62;100530.19;686305;28;1323;-78
2023/08/28 00:22:12;;;;;;;12.48;11.18;;;;;;;14.21;71.71;100533.66;686228;28;1505;-78
2023/08/28 00:22:35;;;;;;;13.00;11.60;;;;;;;14.23;71.73;100539.84;688050;28;1280;-78
2023/08/28 00:22:55;;;;;;;13.20;11.80;;;;;;;14.22;71.88;100532.84;684223;28;1409;-78
2023/08/28 00:23:16;;;;;;;12.25;11.05;;;;;;;14.24;71.78;100540.69;687888;28;1908;-77
2023/08/28 00:23:37;;;;;;;12.23;10.93;;;;;;;14.30;72.12;100547.75;687973;28;1153;-77
2023/08/28 00:23:58;;;;;;;12.10;10.80;;;;;;;14.26;72.01;100539.00;685310;28;1182;-77
2023/08/28 00:24:19;;;;;;;12.82;10.63;;;;;;;14.23;71.84;100533.69;687578;28;1384;-79
2023/08/28 00:24:39;;;;;;;13.10;10.77;;;;;;;14.32;71.68;100546.03;682677;29;1082;-77
2023/08/28 00:25:00;;;;;;;13.85;11.00;;;;;;;14.30;71.76;100545.13;682614;29;1085;-78
2023/08/28 00:25:21;;;;;;;13.30;11.90;;;;;;;14.39;71.70;100560.97;678401;29;1684;-76
2023/08/28 00:25:41;;;;;;;13.07;11.73;;;;;;;14.21;71.92;100531.03;680083;28;1193;-78
2023/08/28 00:26:02;;;;;;;12.70;11.40;;;;;;;14.23;71.95;100537.22;684934;28;1402;-77
2023/08/28 00:26:23;;;;;;;13.57;11.20;;;;;;;14.40;71.81;100557.47;686966;28;1779;-78
2023/08/28 00:26:43;;;;;;;13.37;11.40;;;;;;;14.23;71.63;100531.97;682478;29;992;-78
2023/08/28 00:27:04;;;;;;;15.65;11.60;;;;;;;14.32;71.87;100549.53;679886;29;1022;-78
2023/08/28 00:27:25;;;;;;;14.90;11.40;;;;;;;14.30;71.62;100546.00;679187;29;1838;-78
2023/08/28 00:27:46;;;;;;;15.25;11.43;;;;;;;14.32;71.75;100546.03;681900;28;1554;-78
2023/08/28 00:28:07;;;;;;;12.63;11.13;;;;;;;14.31;71.56;100554.78;687269;28;1233;-78
2023/08/28 00:28:28;;;;;;;13.30;11.50;;;;;;;14.42;71.48;100562.72;682439;29;1413;-78
2023/08/28 00:28:48;;;;;;;12.48;11.18;;;;;;;14.41;71.69;100559.22;685256;28;1103;-77
2023/08/28 00:29:09;;;;;;;12.83;11.43;;;;;;;14.37;71.73;100558.31;688187;28;962;-77
2023/08/28 00:29:30;;;;;;;12.25;10.95;;;;;;;14.23;71.61;100533.69;682428;28;1123;-79
2023/08/28 00:29:51;;;;;;;12.07;10.85;;;;;;;14.44;71.65;100566.25;681190;28;1266;-78
2023/08/28 00:30:12;;;;;;;12.27;11.18;;;;;;;14.41;71.89;100563.59;685466;28;1048;-78
2023/08/28 00:30:33;;;;;;;12.50;11.35;;;;;;;14.28;71.68;100547.75;679929;29;1033;-78
2023/08/28 00:30:54;;;;;;;13.40;11.40;;;;;;;14.29;71.73;100552.13;681305;29;1870;-78
2023/08/28 00:31:15;;;;;;;14.07;11.43;;;;;;;14.38;71.83;100560.09;680556;28;977;-78
2023/08/28 00:31:36;;;;;;;14.43;11.25;;;;;;;14.29;71.56;100551.25;684974;28;1263;-77
2023/08/28 00:31:57;;;;;;;11.67;10.47;;;;;;;14.30;71.63;100550.38;684718;28;1504;-78
2023/08/28 00:32:18;;;;;;;11.55;10.00;;;;;;;14.30;71.47;100539.88;688119;28;1044;-78
2023/08/28 00:32:39;;;;;;;10.95;9.85;;;;;;;14.33;71.66;100547.78;685171;28;1073;-78
2023/08/28 00:33:01;;;;;;;10.90;9.90;;;;;;;14.24;71.63;100541.59;682290;28;1732;-78
2023/08/28 00:33:21;;;;;;;9.95;9.05;;;;;;;14.27;71.73;100546.00;679931;28;1303;-78
2023/08/28 00:33:42;;;;;;;9.80;8.90;;;;;;;14.34;71.52;100554.78;680149;29;1242;-78
2023/08/28 00:34:03;;;;;;;12.52;9.18;;;;;;;14.25;71.61;100540.72;682736;28;1252;-78
2023/08/28 00:34:23;;;;;;;13.50;10.13;;;;;;;14.23;71.79;100542.47;681614;28;2308;-78
2023/08/28 00:34:44;;;;;;;14.13;10.27;;;;;;;14.19;71.33;100531.94;682552;28;1221;-78
2023/08/28 00:35:05;;;;;;;11.80;10.50;;;;;;;14.37;71.54;100563.56;682352;28;1497;-78
2023/08/28 00:35:26;;;;;;;11.98;10.50;;;;;;;14.32;71.71;100554.78;684806;28;2477;-78
2023/08/28 00:35:49;;;;;;;11.75;10.55;;;;;;;14.35;71.98;100559.19;682237;28;2374;-77
2023/08/28 00:36:09;;;;;;;12.10;10.90;;;;;;;14.22;71.75;100545.97;684111;28;1229;-77
2023/08/28 00:36:30;;;;;;;11.80;10.60;;;;;;;14.36;71.89;100560.94;679884;29;1034;-77
2023/08/28 00:36:51;;;;;;;12.73;10.37;;;;;;;14.24;71.56;100538.97;680783;29;1222;-77
2023/08/28 00:37:12;;;;;;;11.55;9.55;;;;;;;14.26;71.55;100541.63;685335;28;1169;-77
2023/08/28 00:37:33;;;;;;;11.48;9.57;;;;;;;14.19;71.25;100532.78;682406;28;1363;-78
2023/08/28 00:37:53;;;;;;;11.32;9.80;;;;;;;14.21;71.54;100544.16;685087;28;1500;-78
2023/08/28 00:38:15;;;;;;;13.18;10.13;;;;;;;14.23;71.61;100555.59;685202;28;985;-78
2023/08/28 00:38:36;;;;;;;13.93;10.80;;;;;;;14.20;71.79;100544.19;684724;28;1257;-77
2023/08/28 00:38:57;;;;;;;12.75;10.20;;;;;;;14.16;71.75;100538.03;682520;28;1229;-78
2023/08/28 00:39:17;;;;;;;11.32;9.93;;;;;;;14.23;71.57;100552.97;676488;29;1865;-78
2023/08/28 00:39:38;;;;;;;12.00;9.65;;;;;;;14.22;71.93;100548.59;679325;29;1442;-78
2023/08/28 00:39:59;;;;;;;13.07;10.05;;;;;;;14.26;71.68;100557.38;682622;29;1095;-78
2023/08/28 00:40:20;;;;;;;13.00;10.40;;;;;;;14.08;72.03;100526.53;679984;28;1553;-78
2023/08/28 00:40:41;;;;;;;11.27;10.20;;;;;;;14.07;71.94;100530.03;682737;28;1363;-78
2023/08/28 00:41:03;;;;;;;11.35;10.23;;;;;;;14.13;71.96;100535.34;682573;28;1103;-78
2023/08/28 00:41:23;;;;;;;11.43;10.23;;;;;;;14.08;71.90;100531.78;680130;29;934;-77
2023/08/28 00:41:44;;;;;;;12.40;10.88;;;;;;;14.18;72.09;100544.16;684549;28;1453;-76
2023/08/28 00:42:06;;;;;;;12.38;11.07;;;;;;;14.11;71.87;100534.47;684902;28;1193;-77
2023/08/28 00:42:26;;;;;;;11.80;10.60;;;;;;;14.06;71.95;100525.63;683985;28;1227;-78
2023/08/28 00:42:47;;;;;;;11.63;10.50;;;;;;;14.23;71.77;100546.81;685635;28;1445;-78
2023/08/28 00:43:08;;;;;;;11.57;10.38;;;;;;;14.10;72.00;100530.03;685218;28;1615;-77
2023/08/28 00:43:29;;;;;;;11.93;10.70;;;;;;;14.13;72.04;100534.47;681512;29;1912;-77
2023/08/28 00:43:50;;;;;;;12.90;11.25;;;;;;;14.11;72.20;100535.34;680989;29;1296;-77
2023/08/28 00:44:10;;;;;;;13.45;11.50;;;;;;;14.11;72.04;100535.34;681042;28;1006;-79
2023/08/28 00:44:32;;;;;;;12.90;11.20;;;;;;;14.10;71.84;100530.94;679590;29;1181;-78
2023/08/28 00:44:52;;;;;;;12.13;10.93;;;;;;;14.18;71.96;100546.78;680886;29;1799;-78
2023/08/28 00:45:14;;;;;;;11.90;10.70;;;;;;;14.14;71.92;100542.38;682506;28;1274;-77
2023/08/28 00:45:41;;;;;;;11.73;10.60;;;;;;;14.20;71.98;100550.28;687127;28;1122;-78
2023/08/28 00:46:03;;;;;;;11.13;10.02;;;;;;;14.21;72.05;100554.66;686874;28;1161;-78
2023/08/28 00:46:24;;;;;;;11.63;10.50;;;;;;;14.11;71.80;100540.59;679915;29;1210;-78
2023/08/28 00:46:45;;;;;;;11.88;10.77;;;;;;;14.06;71.98;100539.63;685487;28;1040;-78
2023/08/28 00:47:10;;;;;;;12.30;11.10;;;;;;;14.09;71.84;100530.91;687661;28;1572;-78
2023/08/28 00:47:31;;;;;;;12.60;10.88;;;;;;;14.20;71.92;100542.41;685605;28;1077;-78
2023/08/28 00:47:52;;;;;;;12.50;10.90;;;;;;;14.19;71.73;100553.78;683698;28;1119;-78
2023/08/28 00:48:17;;;;;;;13.73;10.97;;;;;;;14.23;71.81;100555.59;679870;29;1561;-78
2023/08/28 00:48:38;;;;;;;11.30;10.00;;;;;;;14.13;71.96;100540.59;685125;28;946;-78
2023/08/28 00:48:59;;;;;;;11.52;9.90;;;;;;;14.14;71.87;100550.25;682311;28;1156;-77
2023/08/28 00:49:20;;;;;;;11.48;10.25;;;;;;;14.06;71.89;100544.00;676673;29;953;-78
2023/08/28 00:49:41;;;;;;;12.20;10.50;;;;;;;14.11;71.96;100551.09;677443;29;847;-78
2023/08/28 00:50:03;;;;;;;11.73;10.52;;;;;;;14.10;71.91;100546.69;680074;29;1139;-78
2023/08/28 00:50:25;;;;;;;12.23;10.93;;;;;;;14.13;71.98;100548.47;680084;29;1045;-78
2023/08/28 00:50:57;;;;;;;12.63;11.00;;;;;;;14.05;71.87;100534.38;683269;28;1049;-78
2023/08/28 00:51:18;;;;;;;14.52;10.93;;;;;;;14.05;71.97;100523.88;682549;29;1430;-78
2023/08/28 00:51:39;;;;;;;15.97;11.07;;;;;;;14.16;71.80;100559.00;677424;29;996;-78
2023/08/28 00:52:00;;;;;;;12.73;10.52;;;;;;;14.18;71.97;100554.66;680779;29;1120;-78
2023/08/28 00:52:21;;;;;;;12.00;10.35;;;;;;;14.04;71.55;100537.84;679891;29;1114;-79
2023/08/28 00:52:42;;;;;;;12.88;10.45;;;;;;;13.95;71.81;100523.78;684836;28;1256;-78
2023/08/28 00:53:03;;;;;;;13.70;10.90;;;;;;;14.01;71.98;100525.59;682186;29;1613;-77
2023/08/28 00:53:24;;;;;;;13.57;11.05;;;;;;;13.98;72.04;100523.84;684959;28;1358;-78
2023/08/28 00:53:45;;;;;;;11.50;10.37;;;;;;;14.11;71.96;100550.19;682816;28;1216;-78
2023/08/28 00:54:07;;;;;;;11.10;10.10;;;;;;;14.13;72.04;100539.72;684088;28;2092;-78
2023/08/28 00:54:28;;;;;;;11.20;10.10;;;;;;;13.97;71.77;100526.44;679692;29;1454;-79
2023/08/28 00:54:49;;;;;;;11.77;10.57;;;;;;;14.07;72.21;100545.78;679319;29;1693;-78
2023/08/28 00:55:11;;;;;;;12.20;10.40;;;;;;;14.10;71.89;100537.91;685119;28;1284;-78
2023/08/28 00:55:35;;;;;;;12.50;10.80;;;;;;;14.08;71.87;100542.28;677243;29;1641;-78
2023/08/28 00:55:56;;;;;;;13.23;11.13;;;;;;;14.09;71.73;100551.91;682218;28;1357;-78
2023/08/28 00:56:17;;;;;;;14.67;11.40;;;;;;;14.02;71.77;100545.69;685374;28;1166;-78
2023/08/28 00:56:40;;;;;;;15.32;11.70;;;;;;;13.92;72.06;100526.38;685251;28;1009;-77
2023/08/28 00:57:02;;;;;;;12.65;11.10;;;;;;;14.01;72.14;100543.94;687592;28;1193;-78
2023/08/28 00:57:23;;;;;;;12.60;11.30;;;;;;;13.97;72.34;100537.78;682555;28;1365;-78
2023/08/28 00:57:44;;;;;;;12.00;10.90;;;;;;;13.95;72.10;100534.28;679858;29;1529;-78
2023/08/28 00:58:21;;;;;;;11.98;10.88;;;;;;;13.92;72.03;100528.13;684271;28;944;-77
2023/08/28 00:58:42;;;;;;;14.30;11.20;;;;;;;13.94;72.17;100531.63;687400;28;1211;-77
2023/08/28 00:59:03;;;;;;;14.63;11.27;;;;;;;13.92;71.96;100525.50;684831;28;1259;-78
2023/08/28 00:59:26;;;;;;;13.30;10.93;;;;;;;13.90;72.30;100521.97;680036;29;1238;-78
2023/08/28 00:59:47;;;;;;;11.60;10.50;;;;;;;13.97;72.05;100537.78;679593;29;1614;-78
2023/08/28 01:00:10;;;;;;;11.85;10.75;;;;;;;13.99;72.13;100540.44;685224;28;1203;-78
2023/08/28 01:00:31;;;;;;;12.50;11.30;;;;;;;13.96;71.91;100536.03;687154;28;1216;-78
2023/08/28 01:00:52;;;;;;;12.52;11.32;;;;;;;13.88;71.99;100521.09;683378;28;1482;-78
2023/08/28 01:01:14;;;;;;;14.27;11.90;;;;;;;13.89;71.91;100523.72;681827;29;1267;-78
2023/08/28 01:01:35;;;;;;;15.30;11.68;;;;;;;13.85;72.01;100512.31;681778;29;1323;-78
2023/08/28 01:01:55;;;;;;;15.55;11.25;;;;;;;13.98;72.18;100529.09;680297;29;1304;-77
2023/08/28 01:02:16;;;;;;;13.23;11.10;;;;;;;14.08;71.87;100539.66;684124;28;1417;-78
2023/08/28 01:02:38;;;;;;;12.23;11.02;;;;;;;14.10;71.96;100548.41;685089;28;1191;-78
2023/08/28 01:03:02;;;;;;;11.95;10.85;;;;;;;14.03;71.65;100534.38;679522;29;1446;-78
2023/08/28 01:03:22;;;;;;;11.80;10.70;;;;;;;14.00;71.87;100530.84;677069;29;1899;-78
2023/08/28 01:03:43;;;;;;;11.75;10.73;;;;;;;13.95;71.55;100526.41;679855;29;1049;-79
2023/08/28 01:04:04;;;;;;;12.50;11.30;;;;;;;14.00;71.71;100525.59;679589;29;1247;-77
2023/08/28 01:04:25;;;;;;;14.00;11.27;;;;;;;13.94;71.70;100508.00;684472;28;1643;-78
2023/08/28 01:04:45;;;;;;;14.17;11.50;;;;;;;13.98;71.65;100529.09;684277;28;1158;-78
2023/08/28 01:05:07;;;;;;;13.98;11.38;;;;;;;13.95;71.69;100512.44;684950;28;1719;-78
2023/08/28 01:05:51;;;;;;;12.20;10.90;;;;;;;13.96;71.48;100520.28;684872;28;1465;-78
2023/08/28 01:06:43;;;;;;;12.88;11.30;;;;;;;13.80;71.44;100508.78;682104;28;1399;-78
2023/08/28 01:07:34;;;;;;;12.93;11.32;;;;;;;13.83;71.82;100521.06;683679;28;1458;-78
2023/08/28 01:08:21;;;;;;;14.52;11.07;;;;;;;13.92;71.98;100541.22;685609;28;1216;-78
2023/08/28 01:08:52;;;;;;;11.10;10.00;;;;;;;13.82;72.09;100524.50;682189;28;1674;-78
2023/08/28 01:09:25;;;;;;;11.77;10.48;;;;;;;13.88;72.05;100540.31;683145;28;919;-76
2023/08/28 01:10:15;;;;;;;13.40;10.70;;;;;;;13.83;71.80;100536.78;687311;28;1644;-78
2023/08/28 01:10:41;;;;;;;11.23;10.02;;;;;;;13.79;72.06;100533.25;685421;28;1759;-78
2023/08/28 01:11:16;;;;;;;12.35;9.95;;;;;;;13.73;72.08;100525.31;683990;28;1900;-78
2023/08/28 01:11:46;;;;;;;13.10;9.95;;;;;;;13.80;71.98;100541.97;679592;29;957;-77
2023/08/28 01:12:10;;;;;;;11.40;9.57;;;;;;;13.65;71.96;100508.63;685512;28;1145;-78
2023/08/28 01:12:53;;;;;;;10.23;9.23;;;;;;;13.81;72.10;100541.13;685266;28;1433;-78
2023/08/28 01:13:31;;;;;;;9.73;8.82;;;;;;;13.72;72.02;100534.03;682853;28;918;-77
2023/08/28 01:14:05;;;;;;;10.07;9.10;;;;;;;13.67;72.07;100534.00;682074;28;1423;-77
2023/08/28 01:14:27;;;;;;;10.38;9.20;;;;;;;13.70;71.97;100539.25;681821;28;1096;-77
2023/08/28 01:15:14;;;;;;;10.55;9.07;;;;;;;13.63;71.93;100526.94;677591;29;1987;-78
2023/08/28 01:15:36;;;;;;;10.60;9.18;;;;;;;13.71;72.03;100545.41;676788;29;1161;-78
2023/08/28 01:15:59;;;;;;;10.35;9.25;;;;;;;13.61;72.01;100531.28;680466;29;1362;-78
2023/08/28 01:16:22;;;;;;;12.32;9.48;;;;;;;13.58;71.99;100520.75;677777;29;1153;-77
2023/08/28 01:16:48;;;;;;;12.13;9.18;;;;;;;13.61;71.97;100527.78;684728;28;1398;-77
2023/08/28 01:17:12;;;;;;;10.18;9.00;;;;;;;13.58;72.07;100528.63;682684;28;1148;-77
2023/08/28 01:17:34;;;;;;;10.90;9.82;;;;;;;13.54;72.01;100518.97;682713;28;1502;-76
2023/08/28 01:18:01;;;;;;;11.40;10.30;;;;;;;13.60;72.10;100529.53;688103;28;1080;-78
2023/08/28 01:18:22;;;;;;;11.27;10.18;;;;;;;13.64;72.52;100533.06;690175;28;1503;-77
2023/08/28 01:18:43;;;;;;;11.30;10.10;;;;;;;13.58;71.93;100523.38;685697;28;1052;-77
2023/08/28 01:19:11;;;;;;;11.18;9.98;;;;;;;13.68;72.40;100546.25;689397;28;1082;-76
2023/08/28 01:19:36;;;;;;;10.85;9.57;;;;;;;13.50;72.27;100514.53;685300;28;1714;-77
2023/08/28 01:19:58;;;;;;;10.85;9.43;;;;;;;13.51;72.32;100511.09;687075;28;1195;-76
2023/08/28 01:20:21;;;;;;;10.85;9.75;;;;;;;13.69;72.46;100541.84;682832;29;942;-77
2023/08/28 01:20:43;;;;;;;11.57;10.38;;;;;;;13.69;72.08;100550.63;685700;28;1502;-77
2023/08/28 01:21:04;;;;;;;11.50;10.30;;;;;;;13.64;72.19;100539.19;682508;28;1221;-77
2023/08/28 01:21:25;;;;;;;11.20;10.00;;;;;;;13.57;72.25;100529.47;685049;28;1567;-77
2023/08/28 01:21:49;;;;;;;11.40;10.30;;;;;;;13.63;72.10;100536.56;684268;28;1024;-77
2023/08/28 01:22:17;;;;;;;11.60;10.38;;;;;;;13.69;72.00;100548.00;682991;28;1234;-77
2023/08/28 01:22:53;;;;;;;12.20;10.82;;;;;;;13.48;72.26;100511.03;679954;29;1530;-77
2023/08/28 01:23:26;;;;;;;12.57;11.30;;;;;;;13.55;72.24;100523.34;680566;29;1033;-77
2023/08/28 01:23:59;;;;;;;13.88;11.60;;;;;;;13.67;72.27;100543.59;683170;28;1278;-78
2023/08/28 01:24:21;;;;;;;13.60;11.50;;;;;;;13.59;72.32;100529.50;680126;29;1058;-77
2023/08/28 01:24:52;;;;;;;12.88;11.50;;;;;;;13.67;72.07;100543.59;684137;28;1359;-77
2023/08/28 01:25:14;;;;;;;13.45;11.43;;;;;;;13.68;72.34;100546.25;685108;28;1275;-78
2023/08/28 01:25:36;;;;;;;12.60;11.30;;;;;;;13.67;71.81;100539.25;682411;29;1014;-78
2023/08/28 01:25:58;;;;;;;12.80;11.50;;;;;;;13.61;72.28;100525.16;684455;28;1096;-78
2023/08/28 01:26:19;;;;;;;13.45;12.13;;;;;;;13.71;71.98;100545.41;688140;28;1567;-78
2023/08/28 01:26:40;;;;;;;17.00;12.88;;;;;;;13.62;72.46;100533.06;685187;28;1751;-78
2023/08/28 01:27:02;;;;;;;17.65;13.50;;;;;;;13.62;71.93;100526.91;685178;28;1381;-77
2023/08/28 01:27:23;;;;;;;14.90;13.00;;;;;;;13.63;72.20;100526.09;678905;28;1067;-77
2023/08/28 01:27:44;;;;;;;13.98;12.52;;;;;;;13.70;72.10;100538.38;685447;28;1356;-77
2023/08/28 01:28:05;;;;;;;13.55;12.20;;;;;;;13.75;72.36;100549.78;684760;28;1606;-77
2023/08/28 01:28:25;;;;;;;13.60;12.37;;;;;;;13.63;71.91;100526.09;685353;28;1013;-77
2023/08/28 01:28:46;;;;;;;14.13;12.73;;;;;;;13.78;72.14;100546.34;683185;28;1398;-78
2023/08/28 01:29:07;;;;;;;14.23;12.82;;;;;;;13.60;72.23;100526.91;682592;29;1624;-77
2023/08/28 01:29:28;;;;;;;14.43;12.95;;;;;;;13.77;72.19;100545.44;682687;29;983;-77
2023/08/28 01:30:08;;;;;;;14.93;13.48;;;;;;;13.70;71.88;100536.63;682635;29;1296;-77
2023/08/28 01:30:29;;;;;;;14.70;13.20;;;;;;;13.66;71.71;100515.59;682360;28;1590;-77
2023/08/28 01:30:51;;;;;;;14.85;13.30;;;;;;;13.77;71.85;100534.94;688246;28;1227;-77
2023/08/28 01:31:12;;;;;;;15.18;13.57;;;;;;;13.88;72.00;100550.81;690576;28;1443;-77
2023/08/28 01:31:32;;;;;;;14.80;13.30;;;;;;;13.78;71.75;100535.84;689690;28;1033;-77
2023/08/28 01:31:53;;;;;;;14.82;13.43;;;;;;;13.69;71.80;100521.78;692253;28;1221;-77
2023/08/28 01:32:14;;;;;;;14.20;13.00;;;;;;;13.70;71.86;100523.53;687773;28;1739;-77
2023/08/28 01:32:35;;;;;;;15.02;13.52;;;;;;;13.76;71.72;100537.59;682387;29;1222;-77
2023/08/28 01:32:55;;;;;;;14.90;13.38;;;;;;;13.67;71.75;100523.50;681500;29;1133;-77
2023/08/28 01:33:19;;;;;;;16.27;14.48;;;;;;;13.74;72.00;100536.66;680004;29;1939;-77
2023/08/28 01:33:40;;;;;;;15.30;13.70;;;;;;;13.69;72.17;100529.63;682919;28;969;-77
2023/08/28 01:34:01;;;;;;;14.95;13.45;;;;;;;13.76;72.46;100540.19;682888;28;1169;-77
2023/08/28 01:34:23;;;;;;;15.13;13.73;;;;;;;13.68;72.44;100535.75;679191;28;1728;-77
2023/08/28 01:34:44;;;;;;;16.20;14.70;;;;;;;13.83;72.16;100550.75;681486;28;1151;-77
2023/08/28 01:35:12;;;;;;;15.77;14.23;;;;;;;13.75;72.18;100536.69;682499;28;1122;-78
2023/08/28 01:35:34;;;;;;;14.93;13.43;;;;;;;13.79;72.34;100537.59;675062;29;1737;-78
2023/08/28 01:36:13;;;;;;;14.77;13.27;;;;;;;13.69;72.06;100527.00;679889;29;1081;-79
2023/08/28 01:36:45;;;;;;;15.73;14.13;;;;;;;13.69;71.99;100527.00;680028;28;1788;-77
2023/08/28 01:37:16;;;;;;;16.00;14.40;;;;;;;13.79;72.17;100534.97;688410;28;957;-78
2023/08/28 01:37:43;;;;;;;15.75;14.35;;;;;;;13.93;72.00;100546.50;690980;28;1024;-77
2023/08/28 01:38:16;;;;;;;16.17;14.77;;;;;;;13.91;72.05;100547.34;680775;28;1116;-77
2023/08/28 01:38:54;;;;;;;15.38;13.98;;;;;;;13.67;72.10;100523.50;679977;29;1046;-78
2023/08/28 01:39:22;;;;;;;14.38;12.68;;;;;;;13.63;72.29;100520.84;682870;28;2030;-78
2023/08/28 01:39:50;;;;;;;14.88;13.27;;;;;;;13.68;71.81;100530.50;682876;28;1092;-78
2023/08/28 01:40:15;;;;;;;14.93;13.43;;;;;;;13.60;72.00;100520.78;683072;28;938;-77
2023/08/28 01:40:38;;;;;;;14.70;13.10;;;;;;;13.78;71.87;100556.81;683439;28;1587;-78
2023/08/28 01:41:03;;;;;;;15.30;12.85;;;;;;;13.71;71.98;100546.25;683257;28;1463;-78
2023/08/28 01:41:26;;;;;;;15.60;13.90;;;;;;;13.76;72.23;100551.56;685581;28;1108;-77
2023/08/28 01:41:49;;;;;;;15.48;13.90;;;;;;;13.61;72.14;100526.06;685055;28;1273;-78
2023/08/28 01:42:12;;;;;;;14.30;12.90;;;;;;;13.64;71.96;100528.69;684530;28;1816;-77
2023/08/28 01:42:33;;;;;;;14.90;13.30;;;;;;;13.71;71.99;100546.25;685174;28;1338;-77
2023/08/28 01:42:54;;;;;;;15.10;13.50;;;;;;;13.66;72.08;100537.44;683819;28;1129;-78
2023/08/28 01:43:20;;;;;;;15.50;13.85;;;;;;;13.68;72.33;100535.75;684428;28;1570;-77
2023/08/28 01:43:48;;;;;;;15.77;14.18;;;;;;;13.66;72.09;100534.81;685657;28;816;-78
2023/08/28 01:44:10;;;;;;;15.73;14.23;;;;;;;13.62;72.08;100529.53;680151;29;1221;-78
2023/08/28 01:44:33;;;;;;;15.30;14.00;;;;;;;13.75;72.19;100552.41;687568;28;1154;-77
2023/08/28 01:44:55;;;;;;;15.10;13.70;;;;;;;13.58;72.13;100518.13;689599;28;1220;-77
2023/08/28 01:45:17;;;;;;;15.18;13.70;;;;;;;13.77;72.12;100549.81;685903;28;1389;-77
2023/08/28 01:45:39;;;;;;;14.82;13.32;;;;;;;13.69;72.43;100534.00;687486;28;1093;-77
2023/08/28 01:46:00;;;;;;;14.95;13.45;;;;;;;13.63;72.44;100516.44;683165;28;1103;-77
2023/08/28 01:46:23;;;;;;;14.18;12.88;;;;;;;13.65;72.48;100527.84;682439;28;1457;-78
2023/08/28 01:46:44;;;;;;;14.52;13.02;;;;;;;13.65;72.33;100525.22;688267;28;1252;-78
2023/08/28 01:47:06;;;;;;;14.70;13.20;;;;;;;13.77;72.09;100545.44;688314;28;1139;-77
2023/08/28 01:47:27;;;;;;;14.88;13.38;;;;;;;13.70;72.12;100535.75;687691;28;1187;-77
2023/08/28 01:47:49;;;;;;;14.40;12.90;;;;;;;13.64;72.27;100523.44;685680;28;1204;-77